Alyeska Resort
Hourly Weather - Base Weather Site
ALY_BASE_HR 12/16/2017
CLICK TO VIEW GRAPH!!

        DATE  TIME   Air  BATT   H2o   H2o   Rel
                    Temp  Volt  Inch Since  Hum%
                      F   AVG   1HR  0600   AVG

  12/16/2017 17:00    33 14.00  0.00  0.01    97
  12/16/2017 16:00    34 13.99  0.00  0.01    96
  12/16/2017 15:00    34 13.99  0.00  0.01    96
  12/16/2017 14:00    34 13.99  0.00  0.01    95
  12/16/2017 13:00    34 13.99  0.00  0.01    96
  12/16/2017 12:00    34 14.00  0.00  0.01    96
  12/16/2017 11:00    34 14.00  0.00  0.01    95
  12/16/2017 10:00    34 14.01  0.01  0.01    95
  12/16/2017 09:00    33 14.01  0.00  0.00    95
  12/16/2017 08:00    33 14.01  0.00  0.00    94
  12/16/2017 07:00    32 14.01  0.00  0.00    95
  12/16/2017 06:00    32 14.01  0.00  1.25    95
  12/16/2017 05:00    32 14.00  0.00  1.25    94
  12/16/2017 04:00    32 14.00  0.01  1.25    96
  12/16/2017 03:00    33 14.00  0.00  1.24    96
  12/16/2017 02:00    33 13.99  0.11  1.24    98
  12/16/2017 01:00    33 13.98  0.10  1.13    97
  12/15/2017 24:00    35 13.97  0.08  1.03    94
  12/15/2017 23:00    37 13.96  0.06  0.95    86
  12/15/2017 22:00    37 13.96  0.08  0.89    86
  12/15/2017 21:00    36 13.97  0.12  0.81    88
  12/15/2017 20:00    36 13.97  0.13  0.69    88
  12/15/2017 19:00    37 13.97  0.08  0.56    87
  12/15/2017 18:00    36 13.97  0.08  0.48    88


CLICK TO VIEW GRAPH!!